createdAt,value
2016-08-09T00:03:10.720Z,15.7
2016-08-09T00:06:13.981Z,15.6
2016-08-09T00:09:27.219Z,15.6
2016-08-09T00:12:40.294Z,15.5
2016-08-09T00:15:53.509Z,15.5
2016-08-09T00:19:11.797Z,15.5
2016-08-09T00:22:15.077Z,15.4
2016-08-09T00:25:27.993Z,15.4
2016-08-09T00:28:41.162Z,15.4
2016-08-09T00:35:12.843Z,15.3
2016-08-09T00:38:16.258Z,15.3
2016-08-09T00:41:29.216Z,15.2
2016-08-09T00:44:42.290Z,15.2
2016-08-09T00:47:55.257Z,15.2
2016-08-09T00:51:13.179Z,15.1
2016-08-09T00:54:16.295Z,15.1
2016-08-09T00:57:29.376Z,15.1
2016-08-09T01:00:42.405Z,15
2016-08-09T01:03:53.718Z,15
2016-08-09T01:07:08.824Z,14.9
2016-08-09T01:10:21.842Z,14.8
2016-08-09T01:13:34.872Z,14.8
2016-08-09T01:16:48.146Z,14.7
2016-08-09T01:20:05.837Z,14.7
2016-08-09T01:23:09.109Z,14.7
2016-08-09T01:26:22.219Z,14.6
2016-08-09T01:29:35.443Z,14.6
2016-08-09T01:32:48.709Z,14.6
2016-08-09T01:36:06.829Z,14.5
2016-08-09T01:39:10.330Z,14.5
2016-08-09T01:42:23.800Z,14.4
2016-08-09T01:45:36.998Z,14.4
2016-08-09T01:48:50.251Z,14.4
2016-08-09T01:52:08.677Z,14.5
2016-08-09T01:55:12.076Z,14.4
2016-08-09T01:58:25.282Z,14.5
2016-08-09T02:01:38.426Z,14.4
2016-08-09T02:04:50.209Z,14.3
2016-08-09T02:08:08.602Z,14.3
2016-08-09T02:11:11.867Z,14.2
2016-08-09T02:14:24.816Z,14.2
2016-08-09T02:17:37.920Z,14.1
2016-08-09T02:20:50.955Z,14
2016-08-09T02:24:09.104Z,14
2016-08-09T02:27:10.563Z,14
2016-08-09T02:30:25.667Z,13.9
2016-08-09T02:33:38.812Z,13.9
2016-08-09T02:36:51.789Z,13.9
2016-08-09T02:40:09.838Z,13.8
2016-08-09T02:43:13.066Z,13.8
2016-08-09T02:46:25.905Z,13.8
2016-08-09T02:49:39.050Z,13.7
2016-08-09T02:52:49.822Z,13.7
2016-08-09T02:56:07.737Z,13.6
2016-08-09T02:59:10.942Z,13.6
2016-08-09T03:05:36.728Z,13.5
2016-08-09T03:08:49.595Z,13.5
2016-08-09T03:12:07.337Z,13.5
2016-08-09T03:15:10.535Z,13.5
2016-08-09T03:18:23.502Z,13.5
2016-08-09T03:21:36.375Z,13.5
2016-08-09T03:24:49.207Z,13.5
2016-08-09T03:28:07.116Z,13.5
2016-08-09T03:31:10.128Z,13.5
2016-08-09T03:34:22.838Z,13.6
2016-08-09T03:37:35.783Z,13.5
2016-08-09T03:40:48.563Z,13.5
2016-08-09T03:44:06.317Z,13.5
2016-08-09T03:47:09.336Z,13.5
2016-08-09T03:50:21.983Z,13.5
2016-08-09T03:53:34.926Z,13.5
2016-08-09T03:56:47.713Z,13.5
2016-08-09T04:00:05.635Z,13.4
2016-08-09T04:03:08.372Z,13.4
2016-08-09T04:06:21.013Z,13.4
2016-08-09T04:09:33.945Z,13.4
2016-08-09T04:12:46.679Z,13.4
2016-08-09T04:16:04.471Z,13.5
2016-08-09T04:19:12.597Z,13.5
2016-08-09T04:22:15.564Z,13.5
2016-08-09T04:25:28.397Z,13.5
2016-08-09T04:28:41.122Z,13.5
2016-08-09T04:31:53.934Z,13.5
2016-08-09T04:35:11.593Z,13.6
2016-08-09T04:38:14.849Z,13.7
2016-08-09T04:41:28.018Z,13.7
2016-08-09T04:44:40.900Z,13.7
2016-08-09T04:47:53.938Z,13.8
2016-08-09T04:51:12.003Z,13.8
2016-08-09T04:54:15.421Z,13.8
2016-08-09T04:57:28.506Z,13.9
2016-08-09T05:00:41.524Z,13.8
2016-08-09T05:03:54.455Z,13.5
2016-08-09T05:07:12.291Z,13.1
2016-08-09T05:10:15.486Z,12.9
2016-08-09T05:13:28.297Z,12.7
2016-08-09T05:16:41.163Z,12.6
2016-08-09T05:19:54.086Z,12.5
2016-08-09T05:23:12.021Z,12.5
2016-08-09T05:26:15.024Z,12.5
2016-08-09T05:29:27.738Z,12.4
2016-08-09T05:32:40.566Z,12.4
2016-08-09T05:35:53.259Z,12.4
2016-08-09T05:39:11.005Z,12.5
2016-08-09T05:42:13.799Z,12.5
2016-08-09T05:45:26.687Z,12.6
2016-08-09T05:48:39.414Z,12.7
2016-08-09T05:51:56.403Z,12.8
2016-08-09T05:55:10.019Z,12.9
2016-08-09T05:58:13.161Z,12.9
2016-08-09T06:01:25.886Z,12.9
2016-08-09T06:04:38.783Z,13
2016-08-09T06:07:51.390Z,13.1
2016-08-09T06:11:09.328Z,13.1
2016-08-09T06:14:12.148Z,13.2
2016-08-09T06:17:25.037Z,13.2
2016-08-09T06:20:38.004Z,13.3
2016-08-09T06:23:50.880Z,13.4
2016-08-09T06:27:08.892Z,13.4
2016-08-09T06:30:12.035Z,13.5
2016-08-09T06:33:25.083Z,13.7
2016-08-09T06:36:35.666Z,13.8
2016-08-09T06:39:51.029Z,13.9
2016-08-09T06:43:09.015Z,14.1
2016-08-09T06:46:12.209Z,14.3
2016-08-09T06:49:25.349Z,14.4
2016-08-09T06:52:38.482Z,14.5
2016-08-09T06:55:51.453Z,14.6
2016-08-09T06:59:09.496Z,14.7
2016-08-09T07:02:12.528Z,14.7
2016-08-09T07:05:25.560Z,14.7
2016-08-09T07:08:38.732Z,14.8
2016-08-09T07:11:51.499Z,14.8
2016-08-09T07:15:09.515Z,14.9
2016-08-09T07:18:12.776Z,14.9
2016-08-09T07:21:25.852Z,15
2016-08-09T07:24:38.739Z,15.1
2016-08-09T07:27:51.726Z,15.2
2016-08-09T07:31:09.790Z,15.3
2016-08-09T07:34:12.988Z,15.3
2016-08-09T07:37:25.683Z,15.4
2016-08-09T07:40:38.138Z,15.4
2016-08-09T07:43:51.208Z,15.4
2016-08-09T07:47:09.286Z,15.4
2016-08-09T07:50:12.445Z,15.5
2016-08-09T07:53:25.592Z,15.5
2016-08-09T07:56:38.342Z,15.5
2016-08-09T07:59:51.457Z,15.5
2016-08-09T08:06:12.606Z,15.5
2016-08-09T08:09:25.572Z,15.5
2016-08-09T08:12:38.526Z,15.5
2016-08-09T08:15:51.556Z,15.5
2016-08-09T08:19:09.504Z,15.5
2016-08-09T08:22:12.855Z,15.5
2016-08-09T08:25:25.911Z,15.5
2016-08-09T08:28:37.145Z,15.5
2016-08-09T08:31:52.150Z,15.5
2016-08-09T08:35:09.201Z,15.7
2016-08-09T08:38:13.479Z,15.8
2016-08-09T08:41:26.711Z,16
2016-08-09T08:44:39.944Z,16.1
2016-08-09T08:47:52.736Z,16.1
2016-08-09T08:51:10.908Z,16.1
2016-08-09T08:54:14.252Z,16.1
2016-08-09T08:57:27.229Z,16
2016-08-09T09:00:40.347Z,15.8
2016-08-09T09:07:11.285Z,15.2
2016-08-09T09:10:14.351Z,15
2016-08-09T09:13:27.433Z,14.8
2016-08-09T09:16:40.390Z,14.7
2016-08-09T09:19:53.121Z,14.7
2016-08-09T09:23:10.972Z,14.6
2016-08-09T09:26:14.215Z,14.5
2016-08-09T09:29:27.638Z,14.5
2016-08-09T09:32:41.125Z,14.5
2016-08-09T09:35:54.239Z,14.5
2016-08-09T09:39:12.511Z,14.6
2016-08-09T09:42:16.456Z,14.6
2016-08-09T09:45:26.611Z,14.9
2016-08-09T09:48:39.990Z,15.4
2016-08-09T09:51:53.577Z,15.7
2016-08-09T09:55:12.142Z,16
2016-08-09T09:58:14.259Z,16.1
2016-08-09T10:01:30.092Z,16.5
2016-08-09T10:04:43.721Z,16.7
2016-08-09T10:07:57.369Z,16.9
2016-08-09T10:11:08.984Z,17
2016-08-09T10:14:24.615Z,17.2
2016-08-09T10:17:38.086Z,17.2
2016-08-09T10:20:48.760Z,17.2
2016-08-09T10:24:07.159Z,17.2
2016-08-09T10:27:10.861Z,17.3
2016-08-09T10:30:24.244Z,17.3
2016-08-09T10:33:37.720Z,17.3
2016-08-09T10:36:51.273Z,17.4
2016-08-09T10:40:09.805Z,17.3
2016-08-09T10:43:13.502Z,17.2
2016-08-09T10:46:27.218Z,17.3
2016-08-09T10:52:54.008Z,17.2
2016-08-09T10:56:12.630Z,17.2
2016-08-09T10:59:16.472Z,17.2
2016-08-09T11:02:30.182Z,17.2
2016-08-09T11:05:43.675Z,17.1
2016-08-09T11:08:57.091Z,17
2016-08-09T11:12:10.517Z,17
2016-08-09T11:15:24.127Z,16.9
2016-08-09T11:18:37.106Z,16.9
2016-08-09T11:21:54.782Z,16.9
2016-08-09T11:25:09.113Z,16.8
2016-08-09T11:28:12.787Z,16.8
2016-08-09T11:31:26.118Z,16.7
2016-08-09T11:34:36.437Z,16.7
2016-08-09T11:37:49.918Z,16.7
2016-08-09T11:41:08.242Z,16.7
2016-08-09T11:44:12.036Z,16.6
2016-08-09T11:47:22.916Z,16.6
2016-08-09T11:50:36.475Z,16.5
2016-08-09T11:53:50.011Z,16.4
2016-08-09T11:57:08.350Z,16.4
2016-08-09T12:00:10.069Z,16.4
2016-08-09T12:03:25.681Z,16.4
2016-08-09T12:06:38.826Z,16.4
2016-08-09T12:09:52.441Z,16.4
2016-08-09T12:13:10.958Z,16.3
2016-08-09T12:16:14.719Z,16.4
2016-08-09T12:22:38.762Z,16.5
2016-08-09T12:25:52.172Z,16.5
2016-08-09T12:29:10.598Z,16.5
2016-08-09T12:32:14.421Z,16.5
2016-08-09T12:35:27.819Z,16.5
2016-08-09T12:38:41.287Z,16.5
2016-08-09T12:41:54.417Z,16.4
2016-08-09T12:45:12.506Z,16.4
2016-08-09T12:48:16.223Z,16.3
2016-08-09T12:51:29.720Z,16.3
2016-08-09T12:54:43.039Z,16.1
2016-08-09T12:57:54.589Z,16
2016-08-09T13:01:12.882Z,15.9
2016-08-09T13:04:16.563Z,15.8
2016-08-09T13:07:29.872Z,15.8
2016-08-09T13:10:43.638Z,15.8
2016-08-09T13:13:55.675Z,15.9
2016-08-09T13:17:06.800Z,16
2016-08-09T13:20:21.912Z,16
2016-08-09T13:23:35.370Z,16.1
2016-08-09T13:26:48.741Z,16.1
2016-08-09T13:30:07.028Z,16.2
2016-08-09T13:33:10.565Z,16.2
2016-08-09T13:36:23.955Z,16.3
2016-08-09T13:39:37.354Z,16.2
2016-08-09T13:42:50.484Z,16.2
2016-08-09T13:46:08.872Z,16.1
2016-08-09T13:49:12.502Z,16.1
2016-08-09T13:52:25.931Z,16
2016-08-09T13:55:39.207Z,16
2016-08-09T13:58:52.589Z,15.9
2016-08-09T14:02:09.979Z,15.9
2016-08-09T14:05:13.592Z,15.9
2016-08-09T14:08:26.992Z,15.9
2016-08-09T14:11:40.438Z,15.8
2016-08-09T14:14:53.771Z,15.9
2016-08-09T14:18:12.194Z,15.9
2016-08-09T14:21:15.779Z,15.9
2016-08-09T14:24:29.011Z,15.9
2016-08-09T14:27:39.937Z,15.9
2016-08-09T14:30:55.416Z,15.9
2016-08-09T14:34:08.652Z,16
2016-08-09T14:37:22.008Z,16
2016-08-09T14:40:34.997Z,16
2016-08-09T14:43:48.025Z,16
2016-08-09T14:47:06.029Z,16.1
2016-08-09T14:50:09.365Z,16.1
2016-08-09T14:53:22.610Z,16.1
2016-08-09T14:56:35.800Z,16.2
2016-08-09T14:59:48.784Z,16.3
2016-08-09T15:03:06.928Z,16.3
2016-08-09T15:06:10.380Z,16.4
2016-08-09T15:09:23.459Z,16.4
2016-08-09T15:12:36.748Z,16.5
2016-08-09T15:15:47.654Z,16.6
2016-08-09T15:19:08.095Z,16.6
2016-08-09T15:22:09.141Z,16.6
2016-08-09T15:25:24.436Z,16.7
2016-08-09T15:28:37.806Z,16.8
2016-08-09T15:31:50.904Z,16.7
2016-08-09T15:35:08.855Z,16.7
2016-08-09T15:38:12.091Z,16.7
2016-08-09T15:41:25.080Z,16.6
2016-08-09T15:44:38.203Z,16.6
2016-08-09T15:47:51.360Z,16.6
2016-08-09T15:51:09.575Z,16.7
2016-08-09T15:54:12.887Z,16.7
2016-08-09T15:57:25.920Z,16.7
2016-08-09T16:00:38.843Z,16.7
2016-08-09T16:03:51.932Z,16.7
2016-08-09T16:07:09.729Z,16.6
2016-08-09T16:10:12.951Z,16.6
2016-08-09T16:13:26.194Z,16.6
2016-08-09T16:16:39.305Z,16.6
2016-08-09T16:19:52.368Z,16.6
2016-08-09T16:23:10.579Z,16.6
2016-08-09T16:26:13.940Z,16.6
2016-08-09T16:29:26.851Z,16.5
2016-08-09T16:32:39.759Z,16.5
2016-08-09T16:35:52.801Z,16.5
2016-08-09T16:39:10.766Z,16.5
2016-08-09T16:42:14.009Z,16.5
2016-08-09T16:45:27.119Z,16.5
2016-08-09T16:48:38.460Z,16.5
2016-08-09T16:51:55.314Z,16.5
2016-08-09T16:55:09.007Z,16.5
2016-08-09T16:58:12.247Z,16.5
2016-08-09T17:01:24.781Z,16.5
2016-08-09T17:04:37.782Z,16.5
2016-08-09T17:07:50.915Z,16.4
2016-08-09T17:11:08.550Z,16.4
2016-08-09T17:14:11.845Z,16.4
2016-08-09T17:17:24.916Z,16.3
2016-08-09T17:20:38.189Z,16.3
2016-08-09T17:23:50.526Z,16.3
2016-08-09T17:27:08.508Z,16.3
2016-08-09T17:30:11.956Z,16.3
2016-08-09T17:33:25.185Z,16.3
2016-08-09T17:36:35.816Z,16.3
2016-08-09T17:39:48.813Z,16.2
2016-08-09T17:43:06.423Z,16.2
2016-08-09T17:46:09.646Z,16.2
2016-08-09T17:49:22.764Z,16.1
2016-08-09T17:52:35.606Z,16.1
2016-08-09T17:55:48.485Z,16
2016-08-09T17:59:06.305Z,16
2016-08-09T18:02:09.394Z,16
2016-08-09T18:05:22.454Z,15.9
2016-08-09T18:08:35.531Z,15.9
2016-08-09T18:11:48.590Z,15.8
2016-08-09T18:15:06.415Z,15.8
2016-08-09T18:18:09.779Z,15.7
2016-08-09T18:21:22.428Z,15.7
2016-08-09T18:24:35.451Z,15.7
2016-08-09T18:27:47.851Z,15.5
2016-08-09T18:31:06.006Z,15.1
2016-08-09T18:34:09.205Z,15
2016-08-09T18:37:21.916Z,14.9
2016-08-09T18:40:34.679Z,14.9
2016-08-09T18:43:47.594Z,14.9
2016-08-09T18:47:05.607Z,14.9
2016-08-09T18:50:08.726Z,14.9
2016-08-09T18:53:21.654Z,14.9
2016-08-09T18:56:34.638Z,14.9
2016-08-09T18:59:47.656Z,14.8
2016-08-09T19:03:05.623Z,14.8
2016-08-09T19:06:08.790Z,14.8
2016-08-09T19:09:21.827Z,14.7
2016-08-09T19:12:34.794Z,14.8
2016-08-09T19:15:47.794Z,14.7
2016-08-09T19:19:05.858Z,14.7
2016-08-09T19:22:09.061Z,14.8
2016-08-09T19:25:22.182Z,14.8
2016-08-09T19:28:34.871Z,14.8
2016-08-09T19:31:47.904Z,14.7
2016-08-09T19:32:29.545Z,14.8
2016-08-09T19:35:40.940Z,14.8
2016-08-09T19:38:53.348Z,14.7
2016-08-09T19:42:09.649Z,14.6
2016-08-09T19:45:10.770Z,14.5
2016-08-09T19:48:25.405Z,14.5
2016-08-09T19:51:37.928Z,14.4
2016-08-09T19:54:50.930Z,14.3
2016-08-09T19:58:08.625Z,14.2
2016-08-09T20:01:11.614Z,14.2
2016-08-09T20:04:24.720Z,14.2
2016-08-09T20:07:37.112Z,14.1
2016-08-09T20:10:49.872Z,14.1
2016-08-09T20:14:06.818Z,14
2016-08-09T20:17:09.717Z,13.9
2016-08-09T20:20:22.202Z,13.9
2016-08-09T20:23:35.015Z,13.9
2016-08-09T20:26:47.745Z,13.9
2016-08-09T20:30:05.711Z,13.8
2016-08-09T20:33:13.452Z,13.8
2016-08-09T20:36:16.253Z,13.9
2016-08-09T20:39:26.966Z,13.8
2016-08-09T20:42:41.493Z,13.7
2016-08-09T20:45:52.370Z,13.7
2016-08-09T20:49:10.041Z,13.6
2016-08-09T20:52:13.107Z,13.6
2016-08-09T20:55:25.902Z,13.5
2016-08-09T20:58:38.666Z,13.4
2016-08-09T21:01:51.439Z,13.4
2016-08-09T21:05:09.284Z,13.4
2016-08-09T21:08:12.360Z,13.3
2016-08-09T21:11:25.038Z,13.3
2016-08-09T21:14:37.781Z,13.2
2016-08-09T21:17:50.404Z,13.2
2016-08-09T21:21:08.129Z,13.2
2016-08-09T21:24:09.249Z,13.2
2016-08-09T21:27:23.918Z,13.1
2016-08-09T21:30:36.624Z,13
2016-08-09T21:33:49.284Z,13
2016-08-09T21:37:06.748Z,12.9
2016-08-09T21:40:09.433Z,12.9
2016-08-09T21:43:21.861Z,12.8
2016-08-09T21:46:34.255Z,12.8
2016-08-09T21:49:46.796Z,12.7
2016-08-09T21:53:03.847Z,12.7
2016-08-09T21:56:11.566Z,12.6
2016-08-09T21:59:14.256Z,12.6
2016-08-09T22:02:26.984Z,12.5
2016-08-09T22:05:39.872Z,12.5
2016-08-09T22:08:52.651Z,12.4
2016-08-09T22:12:10.361Z,12.4
2016-08-09T22:15:13.461Z,12.3
2016-08-09T22:18:26.231Z,12.3
2016-08-09T22:21:39.088Z,12.2
2016-08-09T22:24:51.145Z,12.2
2016-08-09T22:28:08.609Z,12.1
2016-08-09T22:31:11.484Z,12.1
2016-08-09T22:34:23.921Z,12.1
2016-08-09T22:37:36.019Z,12
2016-08-09T22:40:48.394Z,11.9
2016-08-09T22:44:05.684Z,11.9
2016-08-09T22:47:13.143Z,11.9
2016-08-09T22:50:15.214Z,11.9
2016-08-09T22:53:27.495Z,11.9
2016-08-09T22:56:39.743Z,11.8
2016-08-09T22:59:52.002Z,11.8
2016-08-09T23:03:09.250Z,11.8
2016-08-09T23:06:11.655Z,11.7
2016-08-09T23:09:23.761Z,11.7
2016-08-09T23:12:35.939Z,11.6
2016-08-09T23:15:48.001Z,11.6
2016-08-09T23:19:06.894Z,11.6
2016-08-09T23:22:09.190Z,11.5
2016-08-09T23:25:23.502Z,11.5
2016-08-09T23:28:37.819Z,11.4
2016-08-09T23:31:51.949Z,11.4
2016-08-09T23:35:11.276Z,11.3
2016-08-09T23:38:15.692Z,11.3
2016-08-09T23:41:30.008Z,11.2
2016-08-09T23:44:43.742Z,11.2
2016-08-09T23:47:58.043Z,11.1
2016-08-09T23:51:12.052Z,11.1
2016-08-09T23:54:26.459Z,11
2016-08-09T23:57:40.416Z,11
